Aeroporto :
LOGIN :

Iscrizione | Disclaimer

   EN    FR    IT 

 










Sommario :    VFR   VFR Marginale   IFR   IFR Intensivo   IFR Molto Intensivo
Visibilità : 
Base nubi : 
>= 8 km
>= 3000ft
5 / 8 km
1000 / 3000 ft
1500m / 5 km
500 / 1000 ft
800 / 1500m
200 / 500 ft
< 800m
< 200 ft
Simboli :   Temporali  Nebbia  Neve Forte  Precipitazioni Forti  Vento > 20 kt
SIGMETs :   Varie  Temporali  Ghiacco  Turbolenza  Onda orograficha  Ceneri Vulcaniche







- Altitudine del aeroporto : 327 ft
- Codice IATA : BHX
- Carte del aeroporto


EGBB - Birmingham

ULTIMO METAR :
  • 210350Z 32006KT CAVOK 09/07 Q1017

METARs OBSOLETI :
  • 210320Z 32007KT CAVOK 09/07 Q1017
  • 210250Z 32006KT CAVOK 09/07 Q1017
  • 210220Z 31007KT CAVOK 09/07 Q1017
  • 210150Z 32005KT CAVOK 09/07 Q1017
  • 210120Z 32007KT CAVOK 10/07 Q1017

TAF TAF EGBB
Valido dal 21 a 00 ore il 22 a 00 ore UTC


202300Z 2100/2124 33007KT 9999 FEW045
PROB30
TEMPO 2103/2108 3000 BR BKN004
ATIS : +44 121 780 0910
Nessun NOTAM noto per questo aeroporto.



MetMap, La meteo Aeronautica in un colpo d'occhio ! - Copyright ORBIFLY Dicembre 2007 - Disclaimer

ORBIFLY MET'MAP TEAM :

Programmazione e sviluppo : Alexandra Zaïnal
Concezione e sviluppo : Baudouin d'Aumeries
Co-Programmazione e sviluppo : Marc-Olivier Méhu
Supporto tecnico e logistico : Manuel Goepfert
Aiuto per la traduzione : Arnaldo La Scala

Contatto : metmap@orbifly.com




FONTI E CREDITI :

   NOAA